sensor_id;sensor_type;location;lat;lon;timestamp;temperature;humidity
3416;DHT22;1721;51.238;9.562;2023-11-19T00:02:08;8.20;99.90
3416;DHT22;1721;51.238;9.562;2023-11-19T00:04:37;8.20;99.90
3416;DHT22;1721;51.238;9.562;2023-11-19T00:07:04;8.30;99.90
3416;DHT22;1721;51.238;9.562;2023-11-19T00:09:32;8.30;99.90
3416;DHT22;1721;51.238;9.562;2023-11-19T00:11:58;8.20;99.90
3416;DHT22;1721;51.238;9.562;2023-11-19T00:14:26;8.20;99.90
3416;DHT22;1721;51.238;9.562;2023-11-19T00:16:51;8.20;99.90
3416;DHT22;1721;51.238;9.562;2023-11-19T00:19:17;8.20;99.90
3416;DHT22;1721;51.238;9.562;2023-11-19T00:21:42;8.20;99.90
3416;DHT22;1721;51.238;9.562;2023-11-19T00:24:09;8.20;99.90
3416;DHT22;1721;51.238;9.562;2023-11-19T00:26:34;8.10;99.90
3416;DHT22;1721;51.238;9.562;2023-11-19T00:29:00;8.20;99.90
3416;DHT22;1721;51.238;9.562;2023-11-19T00:31:26;8.20;99.90
3416;DHT22;1721;51.238;9.562;2023-11-19T00:33:53;8.20;99.90
3416;DHT22;1721;51.238;9.562;2023-11-19T00:36:19;8.20;99.90
3416;DHT22;1721;51.238;9.562;2023-11-19T00:38:44;8.20;99.90
3416;DHT22;1721;51.238;9.562;2023-11-19T00:41:10;8.30;99.90
3416;DHT22;1721;51.238;9.562;2023-11-19T00:43:36;8.30;99.90
3416;DHT22;1721;51.238;9.562;2023-11-19T00:46:01;8.40;99.90
3416;DHT22;1721;51.238;9.562;2023-11-19T00:48:28;8.30;99.90
3416;DHT22;1721;51.238;9.562;2023-11-19T00:50:54;8.30;99.90
3416;DHT22;1721;51.238;9.562;2023-11-19T00:53:19;8.30;99.90
3416;DHT22;1721;51.238;9.562;2023-11-19T00:55:45;8.40;99.90
3416;DHT22;1721;51.238;9.562;2023-11-19T00:58:10;8.40;99.90
3416;DHT22;1721;51.238;9.562;2023-11-19T01:00:36;8.50;99.90
3416;DHT22;1721;51.238;9.562;2023-11-19T01:03:01;8.50;99.90
3416;DHT22;1721;51.238;9.562;2023-11-19T01:05:27;8.50;99.90
3416;DHT22;1721;51.238;9.562;2023-11-19T01:07:54;8.40;99.90
3416;DHT22;1721;51.238;9.562;2023-11-19T01:10:19;8.40;99.90
3416;DHT22;1721;51.238;9.562;2023-11-19T01:12:46;8.50;99.90
3416;DHT22;1721;51.238;9.562;2023-11-19T01:15:11;8.60;99.90
3416;DHT22;1721;51.238;9.562;2023-11-19T01:17:38;8.60;99.90
3416;DHT22;1721;51.238;9.562;2023-11-19T01:20:04;8.60;99.90
3416;DHT22;1721;51.238;9.562;2023-11-19T01:22:32;8.50;99.90
3416;DHT22;1721;51.238;9.562;2023-11-19T01:24:57;8.50;99.90
3416;DHT22;1721;51.238;9.562;2023-11-19T01:27:24;8.60;99.90
3416;DHT22;1721;51.238;9.562;2023-11-19T01:29:50;8.60;99.90
3416;DHT22;1721;51.238;9.562;2023-11-19T01:32:15;8.60;99.90
3416;DHT22;1721;51.238;9.562;2023-11-19T01:34:41;8.80;99.90
3416;DHT22;1721;51.238;9.562;2023-11-19T01:37:07;8.70;99.90
3416;DHT22;1721;51.238;9.562;2023-11-19T01:39:35;8.80;99.90
3416;DHT22;1721;51.238;9.562;2023-11-19T01:42:01;8.70;99.90
3416;DHT22;1721;51.238;9.562;2023-11-19T01:44:27;8.70;99.90
3416;DHT22;1721;51.238;9.562;2023-11-19T01:46:52;8.90;99.90
3416;DHT22;1721;51.238;9.562;2023-11-19T01:49:19;8.90;99.90
3416;DHT22;1721;51.238;9.562;2023-11-19T01:51:46;8.90;99.90
3416;DHT22;1721;51.238;9.562;2023-11-19T01:54:12;8.80;99.90
3416;DHT22;1721;51.238;9.562;2023-11-19T01:56:39;8.90;99.90
3416;DHT22;1721;51.238;9.562;2023-11-19T01:59:09;8.80;99.90
3416;DHT22;1721;51.238;9.562;2023-11-19T02:01:36;8.90;99.90
3416;DHT22;1721;51.238;9.562;2023-11-19T02:04:08;9.00;99.90
3416;DHT22;1721;51.238;9.562;2023-11-19T02:06:34;9.10;99.90
3416;DHT22;1721;51.238;9.562;2023-11-19T02:09:02;9.10;99.90
3416;DHT22;1721;51.238;9.562;2023-11-19T02:11:34;9.20;99.90
3416;DHT22;1721;51.238;9.562;2023-11-19T02:14:00;9.30;99.90
3416;DHT22;1721;51.238;9.562;2023-11-19T02:16:26;9.40;99.90
3416;DHT22;1721;51.238;9.562;2023-11-19T02:18:51;9.50;99.90
3416;DHT22;1721;51.238;9.562;2023-11-19T02:21:17;9.50;99.90
3416;DHT22;1721;51.238;9.562;2023-11-19T02:23:43;9.40;99.90
3416;DHT22;1721;51.238;9.562;2023-11-19T02:26:36;9.30;99.90
3416;DHT22;1721;51.238;9.562;2023-11-19T02:29:04;9.50;99.90
3416;DHT22;1721;51.238;9.562;2023-11-19T02:31:29;9.50;99.90
3416;DHT22;1721;51.238;9.562;2023-11-19T02:33:55;9.70;99.90
3416;DHT22;1721;51.238;9.562;2023-11-19T02:36:20;9.70;99.90
3416;DHT22;1721;51.238;9.562;2023-11-19T02:38:47;9.60;99.90
3416;DHT22;1721;51.238;9.562;2023-11-19T02:41:14;9.50;99.90
3416;DHT22;1721;51.238;9.562;2023-11-19T02:43:39;9.40;99.90
3416;DHT22;1721;51.238;9.562;2023-11-19T02:46:05;9.40;99.90
3416;DHT22;1721;51.238;9.562;2023-11-19T02:48:34;9.30;99.90
3416;DHT22;1721;51.238;9.562;2023-11-19T02:51:04;9.30;99.90
3416;DHT22;1721;51.238;9.562;2023-11-19T02:53:32;9.30;99.90
3416;DHT22;1721;51.238;9.562;2023-11-19T02:55:58;9.30;99.90
3416;DHT22;1721;51.238;9.562;2023-11-19T02:58:32;9.40;99.90
3416;DHT22;1721;51.238;9.562;2023-11-19T03:00:57;9.30;99.90
3416;DHT22;1721;51.238;9.562;2023-11-19T03:03:24;9.30;99.90
3416;DHT22;1721;51.238;9.562;2023-11-19T03:05:56;9.30;99.90
3416;DHT22;1721;51.238;9.562;2023-11-19T03:08:21;9.30;99.90
3416;DHT22;1721;51.238;9.562;2023-11-19T03:10:47;9.30;99.90
3416;DHT22;1721;51.238;9.562;2023-11-19T03:13:14;9.30;99.90
3416;DHT22;1721;51.238;9.562;2023-11-19T03:15:40;9.40;99.90
3416;DHT22;1721;51.238;9.562;2023-11-19T03:18:06;9.40;99.90
3416;DHT22;1721;51.238;9.562;2023-11-19T03:20:31;9.40;99.90
3416;DHT22;1721;51.238;9.562;2023-11-19T03:22:57;9.40;99.90
3416;DHT22;1721;51.238;9.562;2023-11-19T03:25:28;9.40;99.90
3416;DHT22;1721;51.238;9.562;2023-11-19T03:27:59;9.30;99.90
3416;DHT22;1721;51.238;9.562;2023-11-19T03:30:26;9.40;99.90
3416;DHT22;1721;51.238;9.562;2023-11-19T03:32:51;9.60;99.90
3416;DHT22;1721;51.238;9.562;2023-11-19T03:35:17;9.60;99.90
3416;DHT22;1721;51.238;9.562;2023-11-19T03:37:43;9.60;99.90
3416;DHT22;1721;51.238;9.562;2023-11-19T03:40:09;9.50;99.90
3416;DHT22;1721;51.238;9.562;2023-11-19T03:42:35;9.50;99.90
3416;DHT22;1721;51.238;9.562;2023-11-19T03:45:01;9.60;99.90
3416;DHT22;1721;51.238;9.562;2023-11-19T03:47:29;9.80;99.90
3416;DHT22;1721;51.238;9.562;2023-11-19T03:49:54;9.80;99.90
3416;DHT22;1721;51.238;9.562;2023-11-19T03:52:20;9.80;99.90
3416;DHT22;1721;51.238;9.562;2023-11-19T03:54:45;9.80;99.90
3416;DHT22;1721;51.238;9.562;2023-11-19T03:57:14;9.80;99.90
3416;DHT22;1721;51.238;9.562;2023-11-19T03:59:41;9.90;99.90
3416;DHT22;1721;51.238;9.562;2023-11-19T04:02:06;9.90;99.90
3416;DHT22;1721;51.238;9.562;2023-11-19T04:04:32;9.90;99.90
3416;DHT22;1721;51.238;9.562;2023-11-19T04:06:59;9.90;99.90
3416;DHT22;1721;51.238;9.562;2023-11-19T04:09:26;10.00;99.90
3416;DHT22;1721;51.238;9.562;2023-11-19T04:11:51;10.00;99.90
3416;DHT22;1721;51.238;9.562;2023-11-19T04:14:17;9.90;99.90
3416;DHT22;1721;51.238;9.562;2023-11-19T04:16:44;9.80;99.90
3416;DHT22;1721;51.238;9.562;2023-11-19T04:19:11;9.90;99.90
3416;DHT22;1721;51.238;9.562;2023-11-19T04:21:36;9.80;99.90
3416;DHT22;1721;51.238;9.562;2023-11-19T04:24:02;9.80;99.90
3416;DHT22;1721;51.238;9.562;2023-11-19T04:26:28;9.80;99.90
3416;DHT22;1721;51.238;9.562;2023-11-19T04:28:53;9.80;99.90
3416;DHT22;1721;51.238;9.562;2023-11-19T04:31:19;9.80;99.90
3416;DHT22;1721;51.238;9.562;2023-11-19T04:33:45;9.90;99.90
3416;DHT22;1721;51.238;9.562;2023-11-19T04:36:10;9.90;99.90
3416;DHT22;1721;51.238;9.562;2023-11-19T04:38:37;9.90;99.90
3416;DHT22;1721;51.238;9.562;2023-11-19T04:41:04;9.90;99.90
3416;DHT22;1721;51.238;9.562;2023-11-19T04:43:31;10.10;99.90
3416;DHT22;1721;51.238;9.562;2023-11-19T04:45:56;10.10;99.90
3416;DHT22;1721;51.238;9.562;2023-11-19T04:48:23;10.20;99.90
3416;DHT22;1721;51.238;9.562;2023-11-19T04:50:48;10.20;99.90
3416;DHT22;1721;51.238;9.562;2023-11-19T04:53:16;10.30;99.90
3416;DHT22;1721;51.238;9.562;2023-11-19T04:55:42;10.40;99.90
3416;DHT22;1721;51.238;9.562;2023-11-19T04:58:08;10.40;99.90
3416;DHT22;1721;51.238;9.562;2023-11-19T05:00:33;10.40;99.90
3416;DHT22;1721;51.238;9.562;2023-11-19T05:02:59;10.40;99.90
3416;DHT22;1721;51.238;9.562;2023-11-19T05:05:24;10.40;99.90
3416;DHT22;1721;51.238;9.562;2023-11-19T05:07:50;10.40;99.90
3416;DHT22;1721;51.238;9.562;2023-11-19T05:10:15;10.40;99.90
3416;DHT22;1721;51.238;9.562;2023-11-19T05:12:41;10.30;99.90
3416;DHT22;1721;51.238;9.562;2023-11-19T05:15:07;10.20;99.90
3416;DHT22;1721;51.238;9.562;2023-11-19T05:17:33;10.40;99.90
3416;DHT22;1721;51.238;9.562;2023-11-19T05:19:59;10.40;99.90
3416;DHT22;1721;51.238;9.562;2023-11-19T05:22:24;10.30;99.90
3416;DHT22;1721;51.238;9.562;2023-11-19T05:24:51;10.40;99.90
3416;DHT22;1721;51.238;9.562;2023-11-19T05:27:17;10.50;99.90
3416;DHT22;1721;51.238;9.562;2023-11-19T05:29:42;10.30;99.90
3416;DHT22;1721;51.238;9.562;2023-11-19T05:32:09;10.20;99.90
3416;DHT22;1721;51.238;9.562;2023-11-19T05:34:34;10.40;99.90
3416;DHT22;1721;51.238;9.562;2023-11-19T05:37:00;10.40;99.90
3416;DHT22;1721;51.238;9.562;2023-11-19T05:39:25;10.60;99.90
3416;DHT22;1721;51.238;9.562;2023-11-19T05:41:51;10.50;99.90
3416;DHT22;1721;51.238;9.562;2023-11-19T05:44:17;10.40;99.90
3416;DHT22;1721;51.238;9.562;2023-11-19T05:46:43;10.40;99.90
3416;DHT22;1721;51.238;9.562;2023-11-19T05:49:10;10.50;99.90
3416;DHT22;1721;51.238;9.562;2023-11-19T05:51:39;10.60;99.90
3416;DHT22;1721;51.238;9.562;2023-11-19T05:54:09;10.60;99.90
3416;DHT22;1721;51.238;9.562;2023-11-19T05:56:35;10.70;99.90
3416;DHT22;1721;51.238;9.562;2023-11-19T05:59:01;10.70;99.90
3416;DHT22;1721;51.238;9.562;2023-11-19T06:01:29;10.80;99.90
3416;DHT22;1721;51.238;9.562;2023-11-19T06:03:54;10.80;99.90
3416;DHT22;1721;51.238;9.562;2023-11-19T06:06:20;10.80;99.90
3416;DHT22;1721;51.238;9.562;2023-11-19T06:08:45;10.80;99.90
3416;DHT22;1721;51.238;9.562;2023-11-19T06:11:12;10.80;99.90
3416;DHT22;1721;51.238;9.562;2023-11-19T06:13:43;10.80;99.90
3416;DHT22;1721;51.238;9.562;2023-11-19T06:16:09;10.80;99.90
3416;DHT22;1721;51.238;9.562;2023-11-19T06:18:34;11.00;99.90
3416;DHT22;1721;51.238;9.562;2023-11-19T06:21:01;11.10;99.90
3416;DHT22;1721;51.238;9.562;2023-11-19T06:23:26;11.10;99.90
3416;DHT22;1721;51.238;9.562;2023-11-19T06:25:52;11.10;99.90
3416;DHT22;1721;51.238;9.562;2023-11-19T06:28:17;11.10;99.90
3416;DHT22;1721;51.238;9.562;2023-11-19T06:30:43;11.20;99.90
3416;DHT22;1721;51.238;9.562;2023-11-19T06:33:08;11.20;99.90
3416;DHT22;1721;51.238;9.562;2023-11-19T06:35:34;11.10;99.90
3416;DHT22;1721;51.238;9.562;2023-11-19T06:38:04;11.20;99.90
3416;DHT22;1721;51.238;9.562;2023-11-19T06:40:31;11.20;99.90
3416;DHT22;1721;51.238;9.562;2023-11-19T06:42:56;11.30;99.90
3416;DHT22;1721;51.238;9.562;2023-11-19T06:45:23;11.30;99.90
3416;DHT22;1721;51.238;9.562;2023-11-19T06:47:49;11.30;99.90
3416;DHT22;1721;51.238;9.562;2023-11-19T06:50:15;11.30;99.90
3416;DHT22;1721;51.238;9.562;2023-11-19T06:52:41;11.20;99.90
3416;DHT22;1721;51.238;9.562;2023-11-19T06:55:07;11.30;99.90
3416;DHT22;1721;51.238;9.562;2023-11-19T06:57:33;11.40;99.90
3416;DHT22;1721;51.238;9.562;2023-11-19T06:59:58;11.30;99.90
3416;DHT22;1721;51.238;9.562;2023-11-19T07:02:24;11.10;99.90
3416;DHT22;1721;51.238;9.562;2023-11-19T07:04:51;11.20;99.90
3416;DHT22;1721;51.238;9.562;2023-11-19T07:07:16;11.20;99.90
3416;DHT22;1721;51.238;9.562;2023-11-19T07:09:42;11.30;99.90
3416;DHT22;1721;51.238;9.562;2023-11-19T07:12:08;11.30;99.90
3416;DHT22;1721;51.238;9.562;2023-11-19T07:14:34;11.30;99.90
3416;DHT22;1721;51.238;9.562;2023-11-19T07:16:59;11.40;99.90
3416;DHT22;1721;51.238;9.562;2023-11-19T07:19:25;11.40;99.90
3416;DHT22;1721;51.238;9.562;2023-11-19T07:21:51;11.40;99.90
3416;DHT22;1721;51.238;9.562;2023-11-19T07:24:19;11.50;99.90
3416;DHT22;1721;51.238;9.562;2023-11-19T07:26:46;11.50;99.90
3416;DHT22;1721;51.238;9.562;2023-11-19T07:29:15;11.40;99.90
3416;DHT22;1721;51.238;9.562;2023-11-19T07:31:42;11.40;99.90
3416;DHT22;1721;51.238;9.562;2023-11-19T07:34:10;11.20;99.90
3416;DHT22;1721;51.238;9.562;2023-11-19T07:36:36;11.20;99.90
3416;DHT22;1721;51.238;9.562;2023-11-19T07:39:01;11.20;99.90
3416;DHT22;1721;51.238;9.562;2023-11-19T07:41:27;11.40;99.90
3416;DHT22;1721;51.238;9.562;2023-11-19T07:43:54;11.40;99.90
3416;DHT22;1721;51.238;9.562;2023-11-19T07:46:20;11.50;99.90
3416;DHT22;1721;51.238;9.562;2023-11-19T07:48:45;11.50;99.90
3416;DHT22;1721;51.238;9.562;2023-11-19T07:51:12;11.60;99.90
3416;DHT22;1721;51.238;9.562;2023-11-19T07:53:38;11.50;99.90
3416;DHT22;1721;51.238;9.562;2023-11-19T07:56:05;11.50;99.90
3416;DHT22;1721;51.238;9.562;2023-11-19T07:58:31;11.60;99.90
3416;DHT22;1721;51.238;9.562;2023-11-19T08:00:56;11.60;99.90
3416;DHT22;1721;51.238;9.562;2023-11-19T08:03:22;11.70;99.90
3416;DHT22;1721;51.238;9.562;2023-11-19T08:05:48;11.70;99.90
3416;DHT22;1721;51.238;9.562;2023-11-19T08:08:13;11.70;99.90
3416;DHT22;1721;51.238;9.562;2023-11-19T08:10:39;11.60;99.90
3416;DHT22;1721;51.238;9.562;2023-11-19T08:13:05;11.70;99.90
3416;DHT22;1721;51.238;9.562;2023-11-19T08:15:31;11.70;99.90
3416;DHT22;1721;51.238;9.562;2023-11-19T08:17:56;11.70;99.90
3416;DHT22;1721;51.238;9.562;2023-11-19T08:20:22;11.70;99.90
3416;DHT22;1721;51.238;9.562;2023-11-19T08:22:48;11.80;99.90
3416;DHT22;1721;51.238;9.562;2023-11-19T08:25:14;11.80;99.90
3416;DHT22;1721;51.238;9.562;2023-11-19T08:27:40;11.90;99.90
3416;DHT22;1721;51.238;9.562;2023-11-19T08:30:06;12.00;99.90
3416;DHT22;1721;51.238;9.562;2023-11-19T08:32:32;12.00;99.90
3416;DHT22;1721;51.238;9.562;2023-11-19T08:34:58;12.00;99.90
3416;DHT22;1721;51.238;9.562;2023-11-19T08:37:23;12.00;99.90
3416;DHT22;1721;51.238;9.562;2023-11-19T08:39:50;12.00;99.90
3416;DHT22;1721;51.238;9.562;2023-11-19T08:42:16;12.20;99.90
3416;DHT22;1721;51.238;9.562;2023-11-19T08:44:42;12.20;99.90
3416;DHT22;1721;51.238;9.562;2023-11-19T08:47:13;12.30;99.80
3416;DHT22;1721;51.238;9.562;2023-11-19T08:49:39;12.20;99.40
3416;DHT22;1721;51.238;9.562;2023-11-19T08:52:05;12.20;99.20
3416;DHT22;1721;51.238;9.562;2023-11-19T08:54:33;12.20;99.10
3416;DHT22;1721;51.238;9.562;2023-11-19T08:56:59;12.10;98.80
3416;DHT22;1721;51.238;9.562;2023-11-19T08:59:25;12.10;98.70
3416;DHT22;1721;51.238;9.562;2023-11-19T09:01:50;12.00;98.90
3416;DHT22;1721;51.238;9.562;2023-11-19T09:04:16;11.80;98.70
3416;DHT22;1721;51.238;9.562;2023-11-19T09:06:41;11.80;99.30
3416;DHT22;1721;51.238;9.562;2023-11-19T09:09:08;11.80;99.20
3416;DHT22;1721;51.238;9.562;2023-11-19T09:11:33;11.80;99.30
3416;DHT22;1721;51.238;9.562;2023-11-19T09:13:59;11.90;99.50
3416;DHT22;1721;51.238;9.562;2023-11-19T09:16:24;12.00;99.30
3416;DHT22;1721;51.238;9.562;2023-11-19T09:18:50;12.20;99.10
3416;DHT22;1721;51.238;9.562;2023-11-19T09:21:16;12.30;98.90
3416;DHT22;1721;51.238;9.562;2023-11-19T09:23:41;12.50;98.70
3416;DHT22;1721;51.238;9.562;2023-11-19T09:26:10;12.50;98.40
3416;DHT22;1721;51.238;9.562;2023-11-19T09:28:36;12.70;98.00
3416;DHT22;1721;51.238;9.562;2023-11-19T09:31:02;12.90;98.40
3416;DHT22;1721;51.238;9.562;2023-11-19T09:33:30;13.10;97.60
3416;DHT22;1721;51.238;9.562;2023-11-19T09:35:56;13.10;96.20
3416;DHT22;1721;51.238;9.562;2023-11-19T09:38:21;13.20;96.50
3416;DHT22;1721;51.238;9.562;2023-11-19T09:40:47;13.40;96.40
3416;DHT22;1721;51.238;9.562;2023-11-19T09:43:14;13.50;96.30
3416;DHT22;1721;51.238;9.562;2023-11-19T09:45:50;13.60;95.20
3416;DHT22;1721;51.238;9.562;2023-11-19T09:48:19;13.70;95.80
3416;DHT22;1721;51.238;9.562;2023-11-19T09:50:48;13.70;94.50
3416;DHT22;1721;51.238;9.562;2023-11-19T09:53:14;13.60;94.70
3416;DHT22;1721;51.238;9.562;2023-11-19T09:55:41;13.60;94.40
3416;DHT22;1721;51.238;9.562;2023-11-19T09:58:07;13.90;94.80
3416;DHT22;1721;51.238;9.562;2023-11-19T10:00:33;14.10;94.10
3416;DHT22;1721;51.238;9.562;2023-11-19T10:03:00;14.30;94.30
3416;DHT22;1721;51.238;9.562;2023-11-19T10:05:26;14.30;93.20
3416;DHT22;1721;51.238;9.562;2023-11-19T10:07:52;14.30;93.70
3416;DHT22;1721;51.238;9.562;2023-11-19T10:10:18;14.30;93.60
3416;DHT22;1721;51.238;9.562;2023-11-19T10:12:45;14.50;94.10
3416;DHT22;1721;51.238;9.562;2023-11-19T10:15:19;14.30;93.10
3416;DHT22;1721;51.238;9.562;2023-11-19T10:17:45;14.40;93.80
3416;DHT22;1721;51.238;9.562;2023-11-19T10:20:11;14.40;93.60
3416;DHT22;1721;51.238;9.562;2023-11-19T10:22:39;14.30;93.10
3416;DHT22;1721;51.238;9.562;2023-11-19T10:25:21;14.30;92.60
3416;DHT22;1721;51.238;9.562;2023-11-19T10:27:47;14.30;92.20
3416;DHT22;1721;51.238;9.562;2023-11-19T10:30:17;14.30;93.10
3416;DHT22;1721;51.238;9.562;2023-11-19T10:32:42;14.40;92.60
3416;DHT22;1721;51.238;9.562;2023-11-19T10:35:08;14.10;92.50
3416;DHT22;1721;51.238;9.562;2023-11-19T10:37:33;14.20;92.70
3416;DHT22;1721;51.238;9.562;2023-11-19T10:40:02;14.30;92.70
3416;DHT22;1721;51.238;9.562;2023-11-19T10:42:30;14.30;92.30
3416;DHT22;1721;51.238;9.562;2023-11-19T10:44:56;14.40;92.20
3416;DHT22;1721;51.238;9.562;2023-11-19T10:47:22;14.30;91.40
3416;DHT22;1721;51.238;9.562;2023-11-19T10:49:48;14.30;92.20
3416;DHT22;1721;51.238;9.562;2023-11-19T10:52:19;14.30;92.20
3416;DHT22;1721;51.238;9.562;2023-11-19T10:54:49;14.20;91.80
3416;DHT22;1721;51.238;9.562;2023-11-19T10:57:20;14.40;91.90
3416;DHT22;1721;51.238;9.562;2023-11-19T10:59:46;14.50;91.40
3416;DHT22;1721;51.238;9.562;2023-11-19T11:02:16;14.50;91.60
3416;DHT22;1721;51.238;9.562;2023-11-19T11:04:45;14.80;91.90
3416;DHT22;1721;51.238;9.562;2023-11-19T11:07:14;14.80;90.70
3416;DHT22;1721;51.238;9.562;2023-11-19T11:09:41;14.80;90.90
3416;DHT22;1721;51.238;9.562;2023-11-19T11:12:09;14.90;91.10
3416;DHT22;1721;51.238;9.562;2023-11-19T11:14:38;15.00;91.10
3416;DHT22;1721;51.238;9.562;2023-11-19T11:17:06;15.10;91.10
3416;DHT22;1721;51.238;9.562;2023-11-19T11:19:33;15.00;91.00
3416;DHT22;1721;51.238;9.562;2023-11-19T11:22:00;15.10;91.20
3416;DHT22;1721;51.238;9.562;2023-11-19T11:24:51;15.10;91.30
3416;DHT22;1721;51.238;9.562;2023-11-19T11:30:20;14.90;91.50
3416;DHT22;1721;51.238;9.562;2023-11-19T11:33:06;14.70;90.60
3416;DHT22;1721;51.238;9.562;2023-11-19T11:38:14;14.30;90.50
3416;DHT22;1721;51.238;9.562;2023-11-19T11:40:40;14.20;90.20
3416;DHT22;1721;51.238;9.562;2023-11-19T11:49:05;14.10;91.10
3416;DHT22;1721;51.238;9.562;2023-11-19T11:54:10;14.30;90.90
3416;DHT22;1721;51.238;9.562;2023-11-19T11:56:39;14.10;90.80
3416;DHT22;1721;51.238;9.562;2023-11-19T11:59:20;14.10;91.30
3416;DHT22;1721;51.238;9.562;2023-11-19T12:02:00;14.10;90.90
3416;DHT22;1721;51.238;9.562;2023-11-19T12:04:27;14.10;91.30
3416;DHT22;1721;51.238;9.562;2023-11-19T12:07:24;14.10;91.60
3416;DHT22;1721;51.238;9.562;2023-11-19T12:10:09;14.20;91.50
3416;DHT22;1721;51.238;9.562;2023-11-19T12:12:37;14.40;91.50
3416;DHT22;1721;51.238;9.562;2023-11-19T12:15:07;14.40;91.10
3416;DHT22;1721;51.238;9.562;2023-11-19T12:17:47;14.40;91.40
3416;DHT22;1721;51.238;9.562;2023-11-19T12:20:17;14.50;91.50
3416;DHT22;1721;51.238;9.562;2023-11-19T12:22:44;14.50;91.70
3416;DHT22;1721;51.238;9.562;2023-11-19T12:25:12;14.60;91.30
3416;DHT22;1721;51.238;9.562;2023-11-19T12:27:48;14.60;91.20
3416;DHT22;1721;51.238;9.562;2023-11-19T12:30:24;14.60;91.20
3416;DHT22;1721;51.238;9.562;2023-11-19T12:32:50;14.40;91.00
3416;DHT22;1721;51.238;9.562;2023-11-19T12:35:16;14.30;91.10
3416;DHT22;1721;51.238;9.562;2023-11-19T12:37:45;14.40;91.00
3416;DHT22;1721;51.238;9.562;2023-11-19T12:40:19;14.40;91.00
3416;DHT22;1721;51.238;9.562;2023-11-19T12:42:54;14.50;90.50
3416;DHT22;1721;51.238;9.562;2023-11-19T12:45:20;14.40;90.10
3416;DHT22;1721;51.238;9.562;2023-11-19T12:47:47;14.40;90.40
3416;DHT22;1721;51.238;9.562;2023-11-19T12:50:16;14.20;90.40
3416;DHT22;1721;51.238;9.562;2023-11-19T12:53:05;14.20;90.60
3416;DHT22;1721;51.238;9.562;2023-11-19T12:55:30;14.00;90.90
3416;DHT22;1721;51.238;9.562;2023-11-19T12:57:58;14.00;90.40
3416;DHT22;1721;51.238;9.562;2023-11-19T13:00:25;14.00;90.00
3416;DHT22;1721;51.238;9.562;2023-11-19T13:02:55;14.00;90.70
3416;DHT22;1721;51.238;9.562;2023-11-19T13:05:29;14.00;90.10
3416;DHT22;1721;51.238;9.562;2023-11-19T13:08:03;14.00;90.10
3416;DHT22;1721;51.238;9.562;2023-11-19T13:10:34;14.00;88.80
3416;DHT22;1721;51.238;9.562;2023-11-19T13:13:15;14.00;90.00
3416;DHT22;1721;51.238;9.562;2023-11-19T13:15:40;14.00;89.00
3416;DHT22;1721;51.238;9.562;2023-11-19T13:18:06;14.00;89.70
3416;DHT22;1721;51.238;9.562;2023-11-19T13:20:32;13.90;89.10
3416;DHT22;1721;51.238;9.562;2023-11-19T13:23:03;13.90;89.70
3416;DHT22;1721;51.238;9.562;2023-11-19T13:25:29;14.10;90.10
3416;DHT22;1721;51.238;9.562;2023-11-19T13:27:55;14.20;90.00
3416;DHT22;1721;51.238;9.562;2023-11-19T13:30:22;14.20;90.00
3416;DHT22;1721;51.238;9.562;2023-11-19T13:32:49;14.20;90.20
3416;DHT22;1721;51.238;9.562;2023-11-19T13:35:16;14.30;90.40
3416;DHT22;1721;51.238;9.562;2023-11-19T13:37:45;14.10;90.30
3416;DHT22;1721;51.238;9.562;2023-11-19T13:40:12;14.20;90.30
3416;DHT22;1721;51.238;9.562;2023-11-19T13:42:41;14.10;90.60
3416;DHT22;1721;51.238;9.562;2023-11-19T13:45:11;14.10;90.90
3416;DHT22;1721;51.238;9.562;2023-11-19T13:47:42;13.90;91.00
3416;DHT22;1721;51.238;9.562;2023-11-19T13:50:15;13.90;91.40
3416;DHT22;1721;51.238;9.562;2023-11-19T13:52:43;14.00;91.60
3416;DHT22;1721;51.238;9.562;2023-11-19T13:55:11;14.00;92.10
3416;DHT22;1721;51.238;9.562;2023-11-19T13:57:38;13.80;92.50
3416;DHT22;1721;51.238;9.562;2023-11-19T14:00:08;13.70;92.60
3416;DHT22;1721;51.238;9.562;2023-11-19T14:02:56;13.50;93.10
3416;DHT22;1721;51.238;9.562;2023-11-19T14:05:21;13.40;93.40
3416;DHT22;1721;51.238;9.562;2023-11-19T14:07:48;13.20;93.90
3416;DHT22;1721;51.238;9.562;2023-11-19T14:10:14;13.30;94.10
3416;DHT22;1721;51.238;9.562;2023-11-19T14:12:41;13.20;94.40
3416;DHT22;1721;51.238;9.562;2023-11-19T14:15:07;13.20;93.70
3416;DHT22;1721;51.238;9.562;2023-11-19T14:17:35;13.00;94.00
3416;DHT22;1721;51.238;9.562;2023-11-19T14:20:01;12.80;94.40
3416;DHT22;1721;51.238;9.562;2023-11-19T14:22:28;12.70;94.60
3416;DHT22;1721;51.238;9.562;2023-11-19T14:24:55;12.60;94.40
3416;DHT22;1721;51.238;9.562;2023-11-19T14:27:21;12.40;94.60
3416;DHT22;1721;51.238;9.562;2023-11-19T14:29:47;12.40;94.90
3416;DHT22;1721;51.238;9.562;2023-11-19T14:32:13;12.50;94.60
3416;DHT22;1721;51.238;9.562;2023-11-19T14:34:38;12.40;94.90
3416;DHT22;1721;51.238;9.562;2023-11-19T14:37:04;12.50;95.10
3416;DHT22;1721;51.238;9.562;2023-11-19T14:39:30;12.60;95.00
3416;DHT22;1721;51.238;9.562;2023-11-19T14:42:00;12.60;94.30
3416;DHT22;1721;51.238;9.562;2023-11-19T14:44:29;12.40;94.60
3416;DHT22;1721;51.238;9.562;2023-11-19T14:46:55;12.20;95.10
3416;DHT22;1721;51.238;9.562;2023-11-19T14:49:20;12.40;95.20
3416;DHT22;1721;51.238;9.562;2023-11-19T14:51:46;12.50;94.60
3416;DHT22;1721;51.238;9.562;2023-11-19T14:54:12;12.40;94.60
3416;DHT22;1721;51.238;9.562;2023-11-19T14:56:39;12.50;94.90
3416;DHT22;1721;51.238;9.562;2023-11-19T14:59:05;12.30;94.60
3416;DHT22;1721;51.238;9.562;2023-11-19T15:01:30;12.30;95.10
3416;DHT22;1721;51.238;9.562;2023-11-19T15:03:56;12.50;94.80
3416;DHT22;1721;51.238;9.562;2023-11-19T15:06:25;12.30;94.90
3416;DHT22;1721;51.238;9.562;2023-11-19T15:08:55;12.40;95.00
3416;DHT22;1721;51.238;9.562;2023-11-19T15:11:21;12.50;95.10
3416;DHT22;1721;51.238;9.562;2023-11-19T15:13:48;12.50;94.90
3416;DHT22;1721;51.238;9.562;2023-11-19T15:16:15;12.60;94.70
3416;DHT22;1721;51.238;9.562;2023-11-19T15:18:47;12.50;94.60
3416;DHT22;1721;51.238;9.562;2023-11-19T15:21:12;12.40;94.50
3416;DHT22;1721;51.238;9.562;2023-11-19T15:23:38;12.20;94.70
3416;DHT22;1721;51.238;9.562;2023-11-19T15:26:06;12.10;95.10
3416;DHT22;1721;51.238;9.562;2023-11-19T15:28:33;12.10;95.10
3416;DHT22;1721;51.238;9.562;2023-11-19T15:30:58;12.10;95.00
3416;DHT22;1721;51.238;9.562;2023-11-19T15:33:24;12.20;95.10
3416;DHT22;1721;51.238;9.562;2023-11-19T15:35:49;12.30;95.20
3416;DHT22;1721;51.238;9.562;2023-11-19T15:38:15;12.40;95.30
3416;DHT22;1721;51.238;9.562;2023-11-19T15:40:40;12.50;95.20
3416;DHT22;1721;51.238;9.562;2023-11-19T15:43:08;12.30;95.20
3416;DHT22;1721;51.238;9.562;2023-11-19T15:45:33;12.10;96.00
3416;DHT22;1721;51.238;9.562;2023-11-19T15:48:05;12.10;96.10
3416;DHT22;1721;51.238;9.562;2023-11-19T15:50:31;12.10;96.30
3416;DHT22;1721;51.238;9.562;2023-11-19T15:52:57;12.20;96.30
3416;DHT22;1721;51.238;9.562;2023-11-19T15:55:24;12.10;96.20
3416;DHT22;1721;51.238;9.562;2023-11-19T15:57:50;11.90;96.30
3416;DHT22;1721;51.238;9.562;2023-11-19T16:00:16;11.80;96.30
3416;DHT22;1721;51.238;9.562;2023-11-19T16:02:42;11.70;96.40
3416;DHT22;1721;51.238;9.562;2023-11-19T16:05:08;11.60;96.50
3416;DHT22;1721;51.238;9.562;2023-11-19T16:07:37;11.70;96.70
3416;DHT22;1721;51.238;9.562;2023-11-19T16:10:02;11.80;96.60
3416;DHT22;1721;51.238;9.562;2023-11-19T16:12:30;11.80;96.50
3416;DHT22;1721;51.238;9.562;2023-11-19T16:14:55;11.90;96.60
3416;DHT22;1721;51.238;9.562;2023-11-19T16:17:21;11.90;96.40
3416;DHT22;1721;51.238;9.562;2023-11-19T16:19:46;11.90;96.20
3416;DHT22;1721;51.238;9.562;2023-11-19T16:22:12;12.00;96.00